RA02980 ULAA-UUWW
Flight info
| Callsign | RA02980 |
|---|---|
| Flight time | 1h 31m |
| Altitude | 34000 |
| Route | ULAA/08 K0856F340 ABEL3J ABELU T825 UREPI P65 ROMTA ROMT3B UUWW/24 |
| Aircraft | CRJX/M-V/N |
Departure
| Time | 2026-04-28 08:10 |
|---|---|
| Airport | Talagi Airport (ULAA) |
Arrival
| Time | 2026-04-28 09:42 |
|---|---|
| Airport | Vnukovo International Airport (UUWW) |
| Time | Latitude | Longitude | Altitude | Speed | Heading |
|---|---|---|---|---|---|
| 2026-04-28 07:47 | 64.59791 | 40.71014 | 38 ft | 0 kts | 6° |
| 2026-04-28 08:04 | 64.59793 | 40.71015 | 38 ft | 2 kts | 6° |
| 2026-04-28 08:05 | 64.59820 | 40.71020 | 38 ft | 5 kts | 359° |
| 2026-04-28 08:05 | 64.59830 | 40.71015 | 38 ft | 0 kts | 332° |
| 2026-04-28 08:05 | 64.59842 | 40.70988 | 38 ft | 4 kts | 307° |
| 2026-04-28 08:05 | 64.59852 | 40.70929 | 38 ft | 4 kts | 278° |
| 2026-04-28 08:06 | 64.59859 | 40.70788 | 38 ft | 13 kts | 276° |
| 2026-04-28 08:06 | 64.59873 | 40.70506 | 38 ft | 20 kts | 276° |
| 2026-04-28 08:06 | 64.59888 | 40.70197 | 38 ft | 19 kts | 276° |
| 2026-04-28 08:06 | 64.59903 | 40.69903 | 38 ft | 18 kts | 276° |
| 2026-04-28 08:07 | 64.59916 | 40.69623 | 38 ft | 17 kts | 276° |
| 2026-04-28 08:07 | 64.59929 | 40.69356 | 38 ft | 16 kts | 276° |
| 2026-04-28 08:07 | 64.59940 | 40.69131 | 38 ft | 12 kts | 277° |
| 2026-04-28 08:07 | 64.59967 | 40.69039 | 38 ft | 6 kts | 340° |
| 2026-04-28 08:08 | 64.60011 | 40.69038 | 38 ft | 8 kts | 6° |
| 2026-04-28 08:08 | 64.60066 | 40.69053 | 38 ft | 8 kts | 7° |
| 2026-04-28 08:08 | 64.60137 | 40.69077 | 35 ft | 7 kts | 18° |
| 2026-04-28 08:08 | 64.60143 | 40.69087 | 35 ft | 1 kts | 51° |
| 2026-04-28 08:09 | 64.60147 | 40.69112 | 35 ft | 3 kts | 76° |
| 2026-04-28 08:09 | 64.60147 | 40.69216 | 35 ft | 21 kts | 93° |
| 2026-04-28 08:09 | 64.60108 | 40.70052 | 33 ft | 83 kts | 97° |
| 2026-04-28 08:09 | 64.60023 | 40.71798 | 33 ft | 132 kts | 96° |
| 2026-04-28 08:10 | 64.59905 | 40.74233 | 62 ft | 167 kts | 96° |
| 2026-04-28 08:10 | 64.59737 | 40.76919 | 678 ft | 165 kts | 94° |
| 2026-04-28 08:10 | 64.59552 | 40.79470 | 1644 ft | 149 kts | 89° |
| 2026-04-28 08:10 | 64.59412 | 40.81768 | 2429 ft | 143 kts | 82° |
| 2026-04-28 08:11 | 64.58951 | 40.84078 | 2879 ft | 187 kts | 126° |
| 2026-04-28 08:11 | 64.57585 | 40.85081 | 3369 ft | 236 kts | 172° |
| 2026-04-28 08:11 | 64.55914 | 40.83854 | 3935 ft | 269 kts | 211° |
| 2026-04-28 08:11 | 64.54539 | 40.80798 | 4726 ft | 276 kts | 224° |
| 2026-04-28 08:12 | 64.53153 | 40.77679 | 5468 ft | 283 kts | 215° |
| 2026-04-28 08:12 | 64.51489 | 40.75131 | 6015 ft | 290 kts | 200° |
| 2026-04-28 08:12 | 64.49593 | 40.73408 | 6609 ft | 296 kts | 191° |
| 2026-04-28 08:12 | 64.47580 | 40.72002 | 7078 ft | 313 kts | 190° |
| 2026-04-28 08:13 | 64.45399 | 40.70572 | 7245 ft | 339 kts | 191° |
| 2026-04-28 08:13 | 64.43071 | 40.69005 | 7563 ft | 354 kts | 192° |
| 2026-04-28 08:13 | 64.40759 | 40.67289 | 8345 ft | 354 kts | 194° |
| 2026-04-28 08:13 | 64.38410 | 40.65514 | 9051 ft | 355 kts | 193° |
| 2026-04-28 08:14 | 64.36054 | 40.63766 | 9726 ft | 357 kts | 194° |
| 2026-04-28 08:14 | 64.33683 | 40.62006 | 10359 ft | 358 kts | 194° |
| 2026-04-28 08:14 | 64.31305 | 40.60246 | 10972 ft | 360 kts | 194° |
| 2026-04-28 08:14 | 64.28905 | 40.58480 | 11533 ft | 365 kts | 194° |
| 2026-04-28 08:15 | 64.26473 | 40.56685 | 12102 ft | 369 kts | 194° |
| 2026-04-28 08:15 | 64.24012 | 40.54877 | 12680 ft | 373 kts | 194° |
| 2026-04-28 08:15 | 64.21530 | 40.53056 | 13279 ft | 376 kts | 194° |
| 2026-04-28 08:15 | 64.19028 | 40.51227 | 13819 ft | 379 kts | 194° |
| 2026-04-28 08:16 | 64.16510 | 40.49389 | 14342 ft | 381 kts | 194° |
| 2026-04-28 08:16 | 64.13965 | 40.47532 | 14793 ft | 386 kts | 194° |
| 2026-04-28 08:16 | 64.11388 | 40.45656 | 15260 ft | 391 kts | 194° |
| 2026-04-28 08:16 | 64.08787 | 40.43770 | 15742 ft | 394 kts | 194° |
| 2026-04-28 08:17 | 64.06162 | 40.41861 | 16217 ft | 398 kts | 195° |
| 2026-04-28 08:17 | 64.03515 | 40.39951 | 16704 ft | 401 kts | 195° |
| 2026-04-28 08:17 | 64.00847 | 40.38025 | 17164 ft | 404 kts | 195° |
| 2026-04-28 08:17 | 63.98152 | 40.36084 | 17608 ft | 408 kts | 195° |
| 2026-04-28 08:18 | 63.95434 | 40.34126 | 18011 ft | 411 kts | 195° |
| 2026-04-28 08:18 | 63.92695 | 40.32164 | 18422 ft | 413 kts | 195° |
| 2026-04-28 08:18 | 63.89944 | 40.30199 | 18811 ft | 416 kts | 195° |
| 2026-04-28 08:18 | 63.87177 | 40.28216 | 19200 ft | 418 kts | 194° |
| 2026-04-28 08:19 | 63.84394 | 40.26234 | 19571 ft | 421 kts | 195° |
| 2026-04-28 08:19 | 63.81591 | 40.24240 | 19923 ft | 423 kts | 194° |
| 2026-04-28 08:19 | 63.78813 | 40.22269 | 20269 ft | 425 kts | 194° |
| 2026-04-28 08:19 | 63.75979 | 40.20278 | 20617 ft | 427 kts | 194° |
| 2026-04-28 08:20 | 63.73133 | 40.18258 | 20945 ft | 430 kts | 195° |
| 2026-04-28 08:20 | 63.70292 | 40.16089 | 21263 ft | 433 kts | 196° |
| 2026-04-28 08:20 | 63.67437 | 40.13856 | 21587 ft | 435 kts | 196° |
| 2026-04-28 08:20 | 63.64567 | 40.11656 | 21914 ft | 437 kts | 195° |
| 2026-04-28 08:21 | 63.61685 | 40.09459 | 22219 ft | 439 kts | 195° |
| 2026-04-28 08:21 | 63.58788 | 40.07251 | 22512 ft | 441 kts | 195° |
| 2026-04-28 08:21 | 63.55876 | 40.05030 | 22799 ft | 443 kts | 195° |
| 2026-04-28 08:21 | 63.52951 | 40.02810 | 23092 ft | 445 kts | 195° |
| 2026-04-28 08:22 | 63.50013 | 40.00582 | 23342 ft | 446 kts | 195° |
| 2026-04-28 08:22 | 63.47068 | 39.98372 | 23593 ft | 447 kts | 195° |
| 2026-04-28 08:22 | 63.44119 | 39.96077 | 23844 ft | 449 kts | 197° |
| 2026-04-28 08:22 | 63.41196 | 39.93572 | 24073 ft | 451 kts | 199° |
| 2026-04-28 08:23 | 63.38278 | 39.90942 | 24315 ft | 453 kts | 199° |
| 2026-04-28 08:23 | 63.35355 | 39.88317 | 24549 ft | 454 kts | 199° |
| 2026-04-28 08:23 | 63.32418 | 39.85703 | 24780 ft | 455 kts | 199° |
| 2026-04-28 08:23 | 63.29468 | 39.83138 | 25002 ft | 456 kts | 198° |
| 2026-04-28 08:24 | 63.26509 | 39.80582 | 25216 ft | 457 kts | 198° |
| 2026-04-28 08:24 | 63.23540 | 39.78026 | 25428 ft | 458 kts | 198° |
| 2026-04-28 08:24 | 63.20563 | 39.75464 | 25637 ft | 459 kts | 198° |
| 2026-04-28 08:24 | 63.17578 | 39.72910 | 25842 ft | 460 kts | 198° |
| 2026-04-28 08:25 | 63.14582 | 39.70349 | 26039 ft | 462 kts | 198° |
| 2026-04-28 08:25 | 63.11583 | 39.67786 | 26228 ft | 463 kts | 198° |
| 2026-04-28 08:25 | 63.08573 | 39.65225 | 26409 ft | 464 kts | 198° |
| 2026-04-28 08:26 | 63.02537 | 39.60098 | 26765 ft | 466 kts | 198° |
| 2026-04-28 08:26 | 62.99506 | 39.57542 | 26920 ft | 467 kts | 198° |
| 2026-04-28 08:26 | 62.96468 | 39.54976 | 27088 ft | 468 kts | 198° |
| 2026-04-28 08:26 | 62.93423 | 39.52409 | 27260 ft | 469 kts | 198° |
| 2026-04-28 08:27 | 62.90374 | 39.49846 | 27442 ft | 470 kts | 198° |
| 2026-04-28 08:27 | 62.87314 | 39.47283 | 27602 ft | 471 kts | 198° |
| 2026-04-28 08:27 | 62.84254 | 39.44723 | 27755 ft | 472 kts | 198° |
| 2026-04-28 08:27 | 62.81180 | 39.42156 | 27914 ft | 473 kts | 198° |
| 2026-04-28 08:28 | 62.78107 | 39.39602 | 28052 ft | 473 kts | 198° |
| 2026-04-28 08:28 | 62.75028 | 39.37044 | 28206 ft | 474 kts | 198° |
| 2026-04-28 08:28 | 62.71940 | 39.34481 | 28329 ft | 475 kts | 198° |
| 2026-04-28 08:28 | 62.68849 | 39.31933 | 28464 ft | 476 kts | 198° |
| 2026-04-28 08:29 | 62.65752 | 39.29374 | 28584 ft | 477 kts | 198° |
| 2026-04-28 08:29 | 62.62650 | 39.26814 | 28712 ft | 477 kts | 198° |
| 2026-04-28 08:29 | 62.59542 | 39.24260 | 28835 ft | 478 kts | 198° |
| 2026-04-28 08:29 | 62.56427 | 39.21715 | 28961 ft | 478 kts | 198° |
| 2026-04-28 08:30 | 62.53353 | 39.19203 | 29084 ft | 479 kts | 198° |
| 2026-04-28 08:30 | 62.50232 | 39.16649 | 29197 ft | 480 kts | 198° |
| 2026-04-28 08:30 | 62.47103 | 39.14100 | 29313 ft | 481 kts | 198° |
| 2026-04-28 08:31 | 62.40833 | 39.09015 | 29509 ft | 482 kts | 198° |
| 2026-04-28 08:31 | 62.37694 | 39.06473 | 29615 ft | 482 kts | 198° |
| 2026-04-28 08:31 | 62.34547 | 39.03936 | 29710 ft | 483 kts | 198° |
| 2026-04-28 08:32 | 62.28244 | 38.98863 | 29895 ft | 484 kts | 198° |
| 2026-04-28 08:32 | 62.21929 | 38.93806 | 30089 ft | 485 kts | 198° |
| 2026-04-28 08:33 | 62.15599 | 38.88759 | 30249 ft | 486 kts | 198° |
| 2026-04-28 08:33 | 62.09254 | 38.83724 | 30402 ft | 487 kts | 198° |
| 2026-04-28 08:34 | 62.02898 | 38.78707 | 30559 ft | 488 kts | 198° |
| 2026-04-28 08:34 | 61.96522 | 38.73688 | 30702 ft | 489 kts | 198° |
| 2026-04-28 08:35 | 61.90086 | 38.69066 | 30881 ft | 488 kts | 191° |
| 2026-04-28 08:35 | 61.83429 | 38.66412 | 31029 ft | 487 kts | 187° |
| 2026-04-28 08:36 | 61.76747 | 38.63832 | 31089 ft | 490 kts | 189° |
| 2026-04-28 08:36 | 61.70041 | 38.60919 | 31156 ft | 493 kts | 189° |
| 2026-04-28 08:36 | 61.66682 | 38.59513 | 31271 ft | 492 kts | 189° |
| 2026-04-28 08:37 | 61.63325 | 38.58106 | 31344 ft | 492 kts | 189° |
| 2026-04-28 08:37 | 61.56660 | 38.55314 | 31550 ft | 491 kts | 189° |
| 2026-04-28 08:38 | 61.49961 | 38.52514 | 31734 ft | 491 kts | 189° |
| 2026-04-28 08:38 | 61.46613 | 38.51123 | 31839 ft | 490 kts | 189° |
| 2026-04-28 08:38 | 61.43267 | 38.49731 | 31931 ft | 490 kts | 189° |
| 2026-04-28 08:38 | 61.39882 | 38.48327 | 32044 ft | 490 kts | 189° |
| 2026-04-28 08:39 | 61.36588 | 38.46964 | 32180 ft | 489 kts | 189° |
| 2026-04-28 08:39 | 61.33253 | 38.45591 | 32293 ft | 488 kts | 189° |
| 2026-04-28 08:39 | 61.29918 | 38.44220 | 32376 ft | 488 kts | 189° |
| 2026-04-28 08:39 | 61.26591 | 38.42852 | 32494 ft | 488 kts | 189° |
| 2026-04-28 08:40 | 61.23210 | 38.41556 | 32606 ft | 487 kts | 187° |
| 2026-04-28 08:40 | 61.16540 | 38.39952 | 32817 ft | 485 kts | 183° |
| 2026-04-28 08:40 | 61.13176 | 38.39365 | 32945 ft | 485 kts | 183° |
| 2026-04-28 08:41 | 61.09816 | 38.38740 | 33028 ft | 485 kts | 184° |
| 2026-04-28 08:41 | 61.06457 | 38.38030 | 33132 ft | 485 kts | 185° |
| 2026-04-28 08:41 | 61.03099 | 38.37312 | 33180 ft | 486 kts | 185° |
| 2026-04-28 08:42 | 60.96361 | 38.35890 | 33290 ft | 487 kts | 185° |
| 2026-04-28 08:42 | 60.89615 | 38.34475 | 33394 ft | 488 kts | 185° |
| 2026-04-28 08:43 | 60.82856 | 38.33053 | 33412 ft | 489 kts | 185° |
| 2026-04-28 08:43 | 60.76100 | 38.31647 | 33416 ft | 487 kts | 185° |
| 2026-04-28 08:44 | 60.69373 | 38.30248 | 33414 ft | 485 kts | 185° |
| 2026-04-28 08:44 | 60.62666 | 38.28866 | 33410 ft | 484 kts | 185° |
| 2026-04-28 08:45 | 60.55980 | 38.27485 | 33414 ft | 483 kts | 185° |
| 2026-04-28 08:45 | 60.50383 | 38.26335 | 33414 ft | 482 kts | 185° |
| 2026-04-28 08:46 | 60.43756 | 38.24984 | 33407 ft | 482 kts | 185° |
| 2026-04-28 08:46 | 60.37090 | 38.23627 | 33398 ft | 481 kts | 185° |
| 2026-04-28 08:47 | 60.30435 | 38.22274 | 33400 ft | 480 kts | 185° |
| 2026-04-28 08:47 | 60.23785 | 38.20958 | 33392 ft | 480 kts | 185° |
| 2026-04-28 08:48 | 60.17141 | 38.19584 | 33392 ft | 480 kts | 185° |
| 2026-04-28 08:48 | 60.10505 | 38.18248 | 33389 ft | 479 kts | 185° |
| 2026-04-28 08:49 | 60.03871 | 38.16923 | 33384 ft | 479 kts | 185° |
| 2026-04-28 08:49 | 59.97243 | 38.15599 | 33382 ft | 479 kts | 185° |
| 2026-04-28 08:50 | 59.90617 | 38.14282 | 33382 ft | 478 kts | 185° |
| 2026-04-28 08:50 | 59.83984 | 38.12964 | 33389 ft | 480 kts | 185° |
| 2026-04-28 08:51 | 59.77322 | 38.11664 | 33387 ft | 482 kts | 186° |
| 2026-04-28 08:51 | 59.70637 | 38.10323 | 33384 ft | 484 kts | 185° |
| 2026-04-28 08:52 | 59.63974 | 38.09026 | 33378 ft | 485 kts | 185° |
| 2026-04-28 08:52 | 59.57241 | 38.07719 | 33390 ft | 487 kts | 185° |
| 2026-04-28 08:53 | 59.50487 | 38.06410 | 33403 ft | 488 kts | 185° |
| 2026-04-28 08:53 | 59.43710 | 38.05098 | 33412 ft | 490 kts | 185° |
| 2026-04-28 08:54 | 59.36918 | 38.03794 | 33415 ft | 491 kts | 185° |
| 2026-04-28 08:54 | 59.30115 | 38.02494 | 33413 ft | 491 kts | 185° |
| 2026-04-28 08:55 | 59.23308 | 38.01216 | 33415 ft | 492 kts | 185° |
| 2026-04-28 08:55 | 59.16487 | 38.00036 | 33404 ft | 492 kts | 185° |
| 2026-04-28 08:56 | 59.09661 | 37.98927 | 33404 ft | 492 kts | 185° |
| 2026-04-28 08:56 | 59.02828 | 37.97819 | 33385 ft | 493 kts | 185° |
| 2026-04-28 08:57 | 58.95990 | 37.96713 | 33378 ft | 493 kts | 185° |
| 2026-04-28 08:57 | 58.89147 | 37.95613 | 33379 ft | 493 kts | 185° |
| 2026-04-28 08:58 | 58.82304 | 37.94507 | 33370 ft | 494 kts | 184° |
| 2026-04-28 08:58 | 58.75454 | 37.93441 | 33375 ft | 494 kts | 185° |
| 2026-04-28 08:59 | 58.68606 | 37.92340 | 33385 ft | 494 kts | 185° |
| 2026-04-28 08:59 | 58.61741 | 37.91410 | 33394 ft | 495 kts | 184° |
| 2026-04-28 09:00 | 58.54866 | 37.90461 | 33391 ft | 495 kts | 184° |
| 2026-04-28 09:00 | 58.47988 | 37.89529 | 33392 ft | 496 kts | 184° |
| 2026-04-28 09:01 | 58.41107 | 37.88602 | 33389 ft | 496 kts | 184° |
| 2026-04-28 09:01 | 58.34226 | 37.87675 | 33390 ft | 496 kts | 184° |
| 2026-04-28 09:02 | 58.27343 | 37.86755 | 33405 ft | 496 kts | 185° |
| 2026-04-28 09:02 | 58.20506 | 37.85844 | 33405 ft | 495 kts | 185° |
| 2026-04-28 09:03 | 58.13648 | 37.84935 | 33407 ft | 493 kts | 185° |
| 2026-04-28 09:03 | 58.06818 | 37.84029 | 33407 ft | 491 kts | 185° |
| 2026-04-28 09:04 | 58.00006 | 37.83131 | 33413 ft | 489 kts | 185° |
| 2026-04-28 09:04 | 57.93220 | 37.82239 | 33420 ft | 488 kts | 185° |
| 2026-04-28 09:05 | 57.86447 | 37.81352 | 33423 ft | 487 kts | 185° |
| 2026-04-28 09:05 | 57.79687 | 37.80477 | 33425 ft | 486 kts | 184° |
| 2026-04-28 09:06 | 57.72939 | 37.79622 | 33431 ft | 485 kts | 185° |
| 2026-04-28 09:06 | 57.66211 | 37.78666 | 33435 ft | 484 kts | 185° |
| 2026-04-28 09:07 | 57.59496 | 37.77712 | 33438 ft | 484 kts | 185° |
| 2026-04-28 09:07 | 57.52787 | 37.76762 | 33446 ft | 483 kts | 185° |
| 2026-04-28 09:08 | 57.46089 | 37.75835 | 33458 ft | 482 kts | 185° |
| 2026-04-28 09:08 | 57.39396 | 37.74951 | 33459 ft | 482 kts | 185° |
| 2026-04-28 09:09 | 57.32754 | 37.74086 | 33462 ft | 481 kts | 185° |
| 2026-04-28 09:09 | 57.26078 | 37.73224 | 33471 ft | 481 kts | 185° |
| 2026-04-28 09:10 | 57.19406 | 37.72363 | 33480 ft | 480 kts | 185° |
| 2026-04-28 09:10 | 57.12762 | 37.71195 | 33486 ft | 478 kts | 194° |
| 2026-04-28 09:11 | 57.06371 | 37.67918 | 33507 ft | 476 kts | 199° |
| 2026-04-28 09:11 | 57.00210 | 37.63496 | 33504 ft | 475 kts | 205° |
| 2026-04-28 09:12 | 56.94137 | 37.58742 | 33508 ft | 475 kts | 204° |
| 2026-04-28 09:12 | 56.88008 | 37.54252 | 33515 ft | 474 kts | 204° |
| 2026-04-28 09:13 | 56.81885 | 37.49807 | 33520 ft | 473 kts | 204° |
| 2026-04-28 09:13 | 56.75772 | 37.45368 | 33530 ft | 473 kts | 204° |
| 2026-04-28 09:14 | 56.69675 | 37.40917 | 33539 ft | 472 kts | 204° |
| 2026-04-28 09:14 | 56.63599 | 37.36413 | 33550 ft | 471 kts | 205° |
| 2026-04-28 09:15 | 56.57556 | 37.31821 | 33554 ft | 470 kts | 205° |
| 2026-04-28 09:15 | 56.51530 | 37.27206 | 33555 ft | 469 kts | 209° |
| 2026-04-28 09:15 | 56.48802 | 37.24050 | 33568 ft | 463 kts | 223° |
| 2026-04-28 09:16 | 56.46476 | 37.20056 | 33583 ft | 460 kts | 228° |
| 2026-04-28 09:16 | 56.42078 | 37.11672 | 33590 ft | 459 kts | 230° |
| 2026-04-28 09:17 | 56.37360 | 37.03910 | 32894 ft | 462 kts | 213° |
| 2026-04-28 09:17 | 56.34470 | 37.01347 | 31892 ft | 464 kts | 205° |
| 2026-04-28 09:17 | 56.31472 | 36.99230 | 31023 ft | 461 kts | 203° |
| 2026-04-28 09:17 | 56.28457 | 36.97257 | 29899 ft | 463 kts | 202° |
| 2026-04-28 09:18 | 56.25403 | 36.95306 | 28485 ft | 467 kts | 202° |
| 2026-04-28 09:18 | 56.22335 | 36.93373 | 27086 ft | 469 kts | 202° |
| 2026-04-28 09:18 | 56.19257 | 36.91469 | 25787 ft | 463 kts | 202° |
| 2026-04-28 09:18 | 56.16233 | 36.89642 | 24576 ft | 454 kts | 202° |
| 2026-04-28 09:19 | 56.13296 | 36.87929 | 23935 ft | 433 kts | 201° |
| 2026-04-28 09:19 | 56.10453 | 36.86370 | 23254 ft | 423 kts | 200° |
| 2026-04-28 09:19 | 56.07607 | 36.85330 | 22793 ft | 417 kts | 184° |
| 2026-04-28 09:19 | 56.04807 | 36.86083 | 22317 ft | 412 kts | 161° |
| 2026-04-28 09:20 | 56.02212 | 36.88136 | 21799 ft | 405 kts | 155° |
| 2026-04-28 09:20 | 55.99640 | 36.90146 | 21185 ft | 401 kts | 160° |
| 2026-04-28 09:20 | 55.97017 | 36.91760 | 20597 ft | 396 kts | 166° |
| 2026-04-28 09:20 | 55.94361 | 36.92983 | 20029 ft | 392 kts | 169° |
| 2026-04-28 09:21 | 55.91693 | 36.93725 | 19481 ft | 386 kts | 179° |
| 2026-04-28 09:21 | 55.89029 | 36.93959 | 18951 ft | 381 kts | 182° |
| 2026-04-28 09:21 | 55.86399 | 36.94122 | 18449 ft | 377 kts | 181° |
| 2026-04-28 09:21 | 55.83790 | 36.94339 | 17951 ft | 374 kts | 180° |
| 2026-04-28 09:22 | 55.81205 | 36.94671 | 17418 ft | 371 kts | 179° |
| 2026-04-28 09:22 | 55.78643 | 36.95028 | 16866 ft | 367 kts | 179° |
| 2026-04-28 09:22 | 55.76111 | 36.95365 | 16482 ft | 360 kts | 179° |
| 2026-04-28 09:22 | 55.73660 | 36.95697 | 16324 ft | 347 kts | 179° |
| 2026-04-28 09:23 | 55.71291 | 36.96217 | 16105 ft | 340 kts | 174° |
| 2026-04-28 09:23 | 55.68972 | 36.96937 | 15715 ft | 337 kts | 173° |
| 2026-04-28 09:23 | 55.66671 | 36.97680 | 15265 ft | 336 kts | 173° |
| 2026-04-28 09:23 | 55.64387 | 36.98405 | 14827 ft | 333 kts | 173° |
| 2026-04-28 09:24 | 55.62116 | 36.99057 | 14479 ft | 329 kts | 174° |
| 2026-04-28 09:24 | 55.59865 | 36.99692 | 14105 ft | 326 kts | 174° |
| 2026-04-28 09:24 | 55.57619 | 37.00004 | 13736 ft | 322 kts | 183° |
| 2026-04-28 09:24 | 55.55394 | 36.99937 | 13355 ft | 318 kts | 185° |
| 2026-04-28 09:25 | 55.53184 | 36.99807 | 12928 ft | 317 kts | 185° |
| 2026-04-28 09:25 | 55.50988 | 36.99700 | 12516 ft | 315 kts | 185° |
| 2026-04-28 09:25 | 55.48799 | 36.99661 | 12104 ft | 314 kts | 184° |
| 2026-04-28 09:25 | 55.46622 | 36.99650 | 11701 ft | 312 kts | 184° |
| 2026-04-28 09:26 | 55.44455 | 36.99646 | 11295 ft | 311 kts | 184° |
| 2026-04-28 09:26 | 55.42297 | 36.99648 | 10895 ft | 309 kts | 184° |
| 2026-04-28 09:26 | 55.40151 | 36.99636 | 10482 ft | 307 kts | 186° |
| 2026-04-28 09:26 | 55.38033 | 36.99395 | 10143 ft | 301 kts | 191° |
| 2026-04-28 09:27 | 55.34052 | 36.98529 | 9903 ft | 281 kts | 193° |
| 2026-04-28 09:27 | 55.32122 | 36.98085 | 9648 ft | 279 kts | 193° |
| 2026-04-28 09:27 | 55.30181 | 36.97966 | 9360 ft | 287 kts | 172° |
| 2026-04-28 09:28 | 55.28420 | 36.99470 | 9150 ft | 282 kts | 138° |
| 2026-04-28 09:28 | 55.27340 | 37.02274 | 8758 ft | 278 kts | 104° |
| 2026-04-28 09:28 | 55.27223 | 37.05539 | 8313 ft | 265 kts | 69° |
| 2026-04-28 09:28 | 55.27867 | 37.08487 | 7880 ft | 257 kts | 59° |
| 2026-04-28 09:29 | 55.28529 | 37.11412 | 7433 ft | 259 kts | 64° |
| 2026-04-28 09:29 | 55.29032 | 37.14465 | 6963 ft | 262 kts | 70° |
| 2026-04-28 09:29 | 55.29407 | 37.17591 | 6525 ft | 262 kts | 73° |
| 2026-04-28 09:29 | 55.29747 | 37.20732 | 6062 ft | 262 kts | 73° |
| 2026-04-28 09:30 | 55.30087 | 37.23822 | 5598 ft | 261 kts | 73° |
| 2026-04-28 09:30 | 55.30440 | 37.26989 | 5276 ft | 260 kts | 73° |
| 2026-04-28 09:30 | 55.30802 | 37.30088 | 4925 ft | 259 kts | 72° |
| 2026-04-28 09:30 | 55.31166 | 37.33142 | 4580 ft | 258 kts | 72° |
| 2026-04-28 09:31 | 55.31747 | 37.36041 | 4230 ft | 244 kts | 45° |
| 2026-04-28 09:31 | 55.32978 | 37.37734 | 4083 ft | 213 kts | 14° |
| 2026-04-28 09:31 | 55.34317 | 37.38573 | 4032 ft | 197 kts | 5° |
| 2026-04-28 09:31 | 55.35640 | 37.39160 | 4035 ft | 196 kts | 3° |
| 2026-04-28 09:32 | 55.36959 | 37.39706 | 4031 ft | 194 kts | 3° |
| 2026-04-28 09:32 | 55.37844 | 37.40083 | 4019 ft | 193 kts | 3° |
| 2026-04-28 09:32 | 55.39137 | 37.40646 | 4005 ft | 190 kts | 3° |
| 2026-04-28 09:32 | 55.40406 | 37.41226 | 4004 ft | 191 kts | 4° |
| 2026-04-28 09:33 | 55.41702 | 37.41833 | 4016 ft | 195 kts | 5° |
| 2026-04-28 09:33 | 55.43020 | 37.42460 | 4013 ft | 197 kts | 5° |
| 2026-04-28 09:33 | 55.44351 | 37.43095 | 4025 ft | 198 kts | 5° |
| 2026-04-28 09:33 | 55.45680 | 37.43735 | 3996 ft | 198 kts | 5° |
| 2026-04-28 09:34 | 55.47003 | 37.44367 | 3996 ft | 196 kts | 5° |
| 2026-04-28 09:34 | 55.48319 | 37.44999 | 4000 ft | 196 kts | 5° |
| 2026-04-28 09:34 | 55.49630 | 37.45637 | 3996 ft | 195 kts | 5° |
| 2026-04-28 09:34 | 55.50927 | 37.46281 | 3981 ft | 190 kts | 5° |
| 2026-04-28 09:35 | 55.52158 | 37.46913 | 3918 ft | 179 kts | 5° |
| 2026-04-28 09:35 | 55.53347 | 37.47511 | 3730 ft | 177 kts | 4° |
| 2026-04-28 09:35 | 55.54515 | 37.48083 | 3576 ft | 168 kts | 4° |
| 2026-04-28 09:35 | 55.55640 | 37.48643 | 3216 ft | 169 kts | 3° |
| 2026-04-28 09:36 | 55.56790 | 37.49194 | 2841 ft | 171 kts | 2° |
| 2026-04-28 09:36 | 55.57916 | 37.49731 | 2640 ft | 163 kts | 3° |
| 2026-04-28 09:36 | 55.58996 | 37.50235 | 2662 ft | 160 kts | 358° |
| 2026-04-28 09:36 | 55.59981 | 37.49865 | 2653 ft | 138 kts | 324° |
| 2026-04-28 09:37 | 55.60848 | 37.49199 | 2632 ft | 132 kts | 329° |
| 2026-04-28 09:37 | 55.61672 | 37.48641 | 2632 ft | 123 kts | 329° |
| 2026-04-28 09:37 | 55.62463 | 37.48124 | 2595 ft | 121 kts | 329° |
| 2026-04-28 09:37 | 55.63065 | 37.47328 | 2478 ft | 102 kts | 289° |
| 2026-04-28 09:38 | 55.63062 | 37.46074 | 2240 ft | 99 kts | 274° |
| 2026-04-28 09:38 | 55.63133 | 37.44926 | 2104 ft | 93 kts | 280° |
| 2026-04-28 09:38 | 55.63055 | 37.43779 | 2011 ft | 101 kts | 249° |
| 2026-04-28 09:38 | 55.62740 | 37.42691 | 2010 ft | 97 kts | 257° |
| 2026-04-28 09:39 | 55.62499 | 37.41567 | 1999 ft | 98 kts | 258° |
| 2026-04-28 09:39 | 55.62281 | 37.40414 | 1973 ft | 101 kts | 258° |
| 2026-04-28 09:39 | 55.62027 | 37.39224 | 1992 ft | 105 kts | 256° |
| 2026-04-28 09:39 | 55.61764 | 37.37977 | 1993 ft | 111 kts | 257° |
| 2026-04-28 09:40 | 55.61494 | 37.36654 | 1978 ft | 119 kts | 257° |
| 2026-04-28 09:40 | 55.61200 | 37.35268 | 1886 ft | 121 kts | 256° |
| 2026-04-28 09:40 | 55.60897 | 37.33893 | 1626 ft | 119 kts | 255° |
| 2026-04-28 09:40 | 55.60597 | 37.32467 | 1161 ft | 127 kts | 251° |
| 2026-04-28 09:41 | 55.60277 | 37.30999 | 982 ft | 130 kts | 250° |
| 2026-04-28 09:41 | 55.59907 | 37.29492 | 796 ft | 133 kts | 249° |
| 2026-04-28 09:41 | 55.59589 | 37.28068 | 681 ft | 108 kts | 249° |
| 2026-04-28 09:41 | 55.59377 | 37.27128 | 667 ft | 61 kts | 248° |
| 2026-04-28 09:42 | 55.59249 | 37.26553 | 667 ft | 38 kts | 250° |
| 2026-04-28 09:42 | 55.59188 | 37.26268 | 667 ft | 11 kts | 269° |
| 2026-04-28 09:42 | 55.59204 | 37.26206 | 667 ft | 7 kts | 323° |
| 2026-04-28 09:42 | 55.59235 | 37.26198 | 667 ft | 2 kts | 12° |
| 2026-04-28 09:43 | 55.59305 | 37.26255 | 667 ft | 20 kts | 24° |
| 2026-04-28 09:43 | 55.59414 | 37.26354 | 667 ft | 14 kts | 40° |
| 2026-04-28 09:43 | 55.59456 | 37.26463 | 667 ft | 9 kts | 67° |
| 2026-04-28 09:43 | 55.59480 | 37.26562 | 667 ft | 8 kts | 68° |
| 2026-04-28 09:44 | 55.59501 | 37.26656 | 667 ft | 8 kts | 68° |
| 2026-04-28 09:44 | 55.59524 | 37.26759 | 667 ft | 10 kts | 68° |
| 2026-04-28 09:44 | 55.59536 | 37.26850 | 667 ft | 3 kts | 99° |
| 2026-04-28 09:44 | 55.59532 | 37.26867 | 667 ft | 2 kts | 120° |
| 2026-04-28 09:45 | 55.59513 | 37.26915 | 667 ft | 8 kts | 125° |
| 2026-04-28 09:45 | 55.59505 | 37.26957 | 667 ft | 5 kts | 82° |
| 2026-04-28 09:45 | 55.59548 | 37.27076 | 667 ft | 19 kts | 69° |
| 2026-04-28 09:45 | 55.59595 | 37.27286 | 671 ft | 16 kts | 68° |
| 2026-04-28 09:46 | 55.59634 | 37.27454 | 675 ft | 13 kts | 67° |
| 2026-04-28 09:46 | 55.59666 | 37.27594 | 678 ft | 12 kts | 69° |
| 2026-04-28 09:46 | 55.59703 | 37.27722 | 678 ft | 10 kts | 46° |
| 2026-04-28 09:46 | 55.59761 | 37.27781 | 678 ft | 10 kts | 20° |
| 2026-04-28 09:47 | 55.59839 | 37.27829 | 678 ft | 14 kts | 19° |
| 2026-04-28 09:47 | 55.59928 | 37.27901 | 675 ft | 13 kts | 47° |
| 2026-04-28 09:47 | 55.59996 | 37.27990 | 678 ft | 10 kts | 20° |
| 2026-04-28 09:47 | 55.60012 | 37.28001 | 673 ft | 0 kts | 19° |